Time;durP1;ratioP1;P1;durP2;ratioP2;P2;SDS_P1;SDS_P2;PMS_P1;PMS_P2;Temp;Humidity;BMP_temperature;BMP_pressure;BME280_temperature;BME280_humidity;BME280_pressure;Samples;Min_cycle;Max_cycle;Signal;HPM_P1;HPM_P2
2021/06/03 06:47:17;;;;;;;1121.22;999.90;;;;;;;;;;5148091;27;20524;-66
2021/06/03 06:49:43;;;;;;;1214.53;999.90;;;;;;;;;;5131655;28;20166;-66
2021/06/03 06:52:09;;;;;;;1228.53;999.90;;;;;;;;;;5131600;27;20162;-66
2021/06/03 06:54:35;;;;;;;1241.95;999.90;;;;;;;;;;5131680;27;20241;-66
2021/06/03 06:57:01;;;;;;;1224.43;999.90;;;;;;;;;;5130290;28;20236;-66
2021/06/03 06:59:27;;;;;;;1238.50;999.90;;;;;;;;;;5131578;27;20162;-66
2021/06/03 07:01:53;;;;;;;1245.97;999.90;;;;;;;;;;5131545;27;20712;-66
2021/06/03 07:04:19;;;;;;;1240.13;999.90;;;;;;;;;;5131554;27;20154;-66
2021/06/03 07:06:45;;;;;;;1246.97;999.90;;;;;;;;;;5131353;27;20220;-66
2021/06/03 07:09:11;;;;;;;1252.25;999.90;;;;;;;;;;5131388;27;20541;-67
2021/06/03 07:11:37;;;;;;;1248.72;999.90;;;;;;;;;;5131377;27;20176;-66
2021/06/03 07:14:04;;;;;;;1239.72;999.90;;;;;;;;;;5131356;27;20158;-66
2021/06/03 07:16:30;;;;;;;1239.45;999.90;;;;;;;;;;5131190;27;20252;-67
2021/06/03 07:18:56;;;;;;;1251.63;999.90;;;;;;;;;;5131209;27;20193;-66
2021/06/03 07:21:22;;;;;;;1242.80;999.90;;;;;;;;;;5131138;27;20170;-67
2021/06/03 07:23:48;;;;;;;1247.50;999.90;;;;;;;;;;5131090;27;20166;-66
2021/06/03 07:26:15;;;;;;;1250.65;999.90;;;;;;;;;;5130917;27;20265;-67
2021/06/03 07:28:41;;;;;;;1243.90;999.90;;;;;;;;;;5129612;28;20559;-67
2021/06/03 07:31:08;;;;;;;1232.50;999.90;;;;;;;;;;5129600;28;20173;-67
2021/06/03 07:33:34;;;;;;;1246.68;999.90;;;;;;;;;;5130878;27;20558;-66
2021/06/03 07:36:00;;;;;;;1246.30;999.90;;;;;;;;;;5130808;27;20170;-67
2021/06/03 07:38:26;;;;;;;1244.90;999.90;;;;;;;;;;5129476;28;20230;-67
2021/06/03 07:40:52;;;;;;;1257.78;999.90;;;;;;;;;;5129468;28;20170;-67
2021/06/03 07:43:18;;;;;;;1257.20;999.90;;;;;;;;;;5130700;27;20162;-67
2021/06/03 07:45:45;;;;;;;1263.50;999.90;;;;;;;;;;5130464;27;20236;-66
2021/06/03 07:48:11;;;;;;;1253.72;999.90;;;;;;;;;;5130656;27;20678;-66
2021/06/03 07:50:38;;;;;;;1260.90;999.90;;;;;;;;;;5129278;28;20239;-67
2021/06/03 07:53:05;;;;;;;1257.65;999.90;;;;;;;;;;5130551;27;20582;-67
2021/06/03 07:55:31;;;;;;;1265.10;999.90;;;;;;;;;;5130418;27;20173;-67
2021/06/03 07:58:00;;;;;;;1263.97;999.90;;;;;;;;;;5120864;27;20163;-66
2021/06/03 08:00:27;;;;;;;1256.38;999.90;;;;;;;;;;5115352;28;20544;-67
2021/06/03 08:02:53;;;;;;;1264.55;999.90;;;;;;;;;;5116628;27;20232;-66
2021/06/03 08:05:20;;;;;;;1267.00;999.90;;;;;;;;;;5116419;28;20273;-66
2021/06/03 08:07:47;;;;;;;1262.72;999.90;;;;;;;;;;5116512;28;20186;-67
2021/06/03 08:10:14;;;;;;;1261.95;999.90;;;;;;;;;;5116532;28;20162;-67
2021/06/03 08:12:40;;;;;;;1258.85;999.90;;;;;;;;;;5115170;28;20166;-67
2021/06/03 08:15:07;;;;;;;1269.18;999.90;;;;;;;;;;5116331;28;20190;-67
2021/06/03 08:17:33;;;;;;;1262.18;999.90;;;;;;;;;;5116354;27;20566;-67
2021/06/03 08:19:59;;;;;;;1267.97;999.90;;;;;;;;;;5116251;28;20182;-67
2021/06/03 08:22:25;;;;;;;1268.70;999.90;;;;;;;;;;5116679;28;20639;-67
2021/06/03 08:24:51;;;;;;;1257.45;999.90;;;;;;;;;;5116289;28;20166;-67
2021/06/03 08:27:18;;;;;;;1266.82;999.90;;;;;;;;;;5116112;28;20171;-67
2021/06/03 08:29:44;;;;;;;1267.97;999.90;;;;;;;;;;5114878;28;20571;-67
2021/06/03 08:32:10;;;;;;;1266.78;999.90;;;;;;;;;;5116083;28;20166;-67
2021/06/03 08:34:36;;;;;;;1279.75;999.90;;;;;;;;;;5116045;28;20559;-67
2021/06/03 08:37:02;;;;;;;1269.50;999.90;;;;;;;;;;5116002;28;20628;-67
2021/06/03 08:39:28;;;;;;;1258.68;999.90;;;;;;;;;;5115887;28;20770;-67
2021/06/03 08:41:56;;;;;;;1264.20;999.90;;;;;;;;;;5115923;28;20194;-67
2021/06/03 08:44:23;;;;;;;1267.40;999.90;;;;;;;;;;5115819;28;20684;-67
2021/06/03 08:46:49;;;;;;;1265.30;999.90;;;;;;;;;;5115500;28;20218;-67
2021/06/03 08:49:15;;;;;;;1262.72;999.90;;;;;;;;;;5115730;28;20216;-67
2021/06/03 08:51:41;;;;;;;1261.60;999.90;;;;;;;;;;5115747;28;20178;-67
2021/06/03 08:54:07;;;;;;;1267.05;999.90;;;;;;;;;;5115688;28;20200;-67
2021/06/03 08:56:33;;;;;;;1275.70;999.90;;;;;;;;;;5115589;28;20166;-67
2021/06/03 08:59:00;;;;;;;1271.60;999.90;;;;;;;;;;5115569;28;20649;-67
2021/06/03 09:01:27;;;;;;;1271.03;999.90;;;;;;;;;;5115493;28;20173;-65
2021/06/03 09:03:53;;;;;;;1272.32;999.90;;;;;;;;;;5115466;28;20167;-67
2021/06/03 09:06:20;;;;;;;1283.97;999.90;;;;;;;;;;5115359;28;20189;-67
2021/06/03 09:08:56;;;;;;;1283.22;999.90;;;;;;;;;;5114345;28;20163;-67
2021/06/03 09:11:22;;;;;;;1279.00;999.90;;;;;;;;;;5115281;28;20261;-67
2021/06/03 09:13:55;;;;;;;1291.50;999.90;;;;;;;;;;5115208;28;20159;-67
2021/06/03 09:16:26;;;;;;;1291.93;999.90;;;;;;;;;;5115170;28;20576;-67
2021/06/03 09:18:58;;;;;;;1278.28;999.90;;;;;;;;;;5115062;28;20273;-67
2021/06/03 09:21:27;;;;;;;1288.90;999.90;;;;;;;;;;5115153;28;20173;-67
2021/06/03 09:24:05;;;;;;;1289.97;999.90;;;;;;;;;;5115018;28;20249;-66
2021/06/03 09:26:34;;;;;;;1289.88;999.90;;;;;;;;;;5114969;28;20204;-67
2021/06/03 09:29:01;;;;;;;1297.80;999.90;;;;;;;;;;5114881;28;20647;-66
2021/06/03 09:31:29;;;;;;;1290.80;999.90;;;;;;;;;;5114890;28;20663;-67
2021/06/03 09:33:57;;;;;;;1280.13;999.90;;;;;;;;;;5113759;28;20173;-66
2021/06/03 09:36:27;;;;;;;1284.22;999.90;;;;;;;;;;5113644;28;20178;-66
2021/06/03 09:38:55;;;;;;;1285.00;999.90;;;;;;;;;;5115469;28;20480;-66
2021/06/03 09:41:21;;;;;;;1280.28;999.90;;;;;;;;;;5115328;28;20181;-66
2021/06/03 09:43:47;;;;;;;1283.05;999.90;;;;;;;;;;5115038;28;20166;-66
2021/06/03 09:46:14;;;;;;;1274.15;999.90;;;;;;;;;;5114872;28;20228;-66
2021/06/03 09:48:42;;;;;;;1275.95;999.90;;;;;;;;;;5114923;28;20545;-66
2021/06/03 09:51:17;;;;;;;1278.30;999.90;;;;;;;;;;5114860;28;20170;-66
2021/06/03 09:53:49;;;;;;;1282.03;999.90;;;;;;;;;;5114812;28;20158;-66
2021/06/03 09:56:29;;;;;;;1285.47;999.90;;;;;;;;;;5114831;28;20170;-66
2021/06/03 09:58:55;;;;;;;1290.47;999.90;;;;;;;;;;5114874;27;20166;-66
2021/06/03 10:01:47;;;;;;;1283.15;999.90;;;;;;;;;;5114598;28;20204;-66
2021/06/03 10:04:16;;;;;;;1284.38;999.90;;;;;;;;;;5110905;28;20239;-66
2021/06/03 10:07:00;;;;;;;1279.30;999.90;;;;;;;;;;5114748;28;20190;-67
2021/06/03 10:09:36;;;;;;;1286.32;999.90;;;;;;;;;;5114445;28;20516;-66
2021/06/03 10:12:02;;;;;;;1283.53;999.90;;;;;;;;;;5114444;28;20633;-66
2021/06/03 10:14:29;;;;;;;1291.00;999.90;;;;;;;;;;5114492;27;20608;-66
2021/06/03 10:16:55;;;;;;;1298.15;999.90;;;;;;;;;;5114402;28;20588;-66
2021/06/03 10:19:28;;;;;;;1294.20;999.90;;;;;;;;;;5114258;28;20186;-66
2021/06/03 10:22:12;;;;;;;1296.20;999.90;;;;;;;;;;5112842;28;20213;-66
2021/06/03 10:24:47;;;;;;;1286.10;999.90;;;;;;;;;;5114249;28;20194;-67
2021/06/03 10:27:13;;;;;;;1296.07;999.90;;;;;;;;;;5113878;28;20263;-67
2021/06/03 10:29:40;;;;;;;1299.07;999.90;;;;;;;;;;5112566;28;20540;-67
2021/06/03 10:32:06;;;;;;;1293.95;999.90;;;;;;;;;;5112619;28;20174;-66
2021/06/03 10:34:32;;;;;;;1306.07;999.90;;;;;;;;;;5113805;28;20253;-66
2021/06/03 10:36:59;;;;;;;1310.45;999.90;;;;;;;;;;5113847;28;20174;-67
2021/06/03 10:39:25;;;;;;;1302.03;999.90;;;;;;;;;;5113845;28;20576;-67
2021/06/03 10:41:51;;;;;;;1304.55;999.90;;;;;;;;;;5112508;28;20174;-66
2021/06/03 10:44:17;;;;;;;1310.53;999.90;;;;;;;;;;5113761;28;20295;-67
2021/06/03 10:46:44;;;;;;;1300.53;999.90;;;;;;;;;;5113460;28;20253;-66
2021/06/03 10:49:10;;;;;;;1290.82;999.90;;;;;;;;;;5113682;28;20166;-66
2021/06/03 10:51:39;;;;;;;1294.25;999.90;;;;;;;;;;5113694;28;20169;-66
2021/06/03 10:54:05;;;;;;;1280.05;999.90;;;;;;;;;;5113630;28;20176;-66
2021/06/03 10:56:31;;;;;;;1288.57;999.90;;;;;;;;;;5112391;28;20178;-66
2021/06/03 10:58:57;;;;;;;1292.53;999.90;;;;;;;;;;5113576;28;20521;-66
2021/06/03 11:01:23;;;;;;;1286.53;999.90;;;;;;;;;;5113584;28;20508;-66
2021/06/03 11:03:51;;;;;;;1300.78;999.90;;;;;;;;;;5113465;28;20174;-67
2021/06/03 11:06:18;;;;;;;1293.40;999.90;;;;;;;;;;5113510;28;20661;-67
2021/06/03 11:08:48;;;;;;;1298.97;999.90;;;;;;;;;;5113444;28;20177;-67
2021/06/03 11:11:14;;;;;;;1292.75;999.90;;;;;;;;;;5113584;28;20163;-75
2021/06/03 11:13:49;;;;;;;1297.65;999.90;;;;;;;;;;5113507;28;20167;-75
2021/06/03 11:16:16;;;;;;;1292.47;999.90;;;;;;;;;;5113478;28;20654;-74
2021/06/03 11:18:42;;;;;;;1310.30;999.90;;;;;;;;;;5113500;28;20162;-75
2021/06/03 11:21:08;;;;;;;1311.88;999.90;;;;;;;;;;5113460;28;20632;-74
2021/06/03 11:23:34;;;;;;;1305.68;999.90;;;;;;;;;;5113404;28;20171;-75
2021/06/03 11:26:03;;;;;;;1304.05;999.90;;;;;;;;;;5113343;28;20202;-74
2021/06/03 11:28:29;;;;;;;1312.15;999.90;;;;;;;;;;5113364;28;20162;-74
2021/06/03 11:30:55;;;;;;;1316.55;999.90;;;;;;;;;;5113321;28;20171;-75
2021/06/03 11:33:21;;;;;;;1311.55;999.90;;;;;;;;;;5115846;28;20258;-75
2021/06/03 11:35:47;;;;;;;1305.32;999.90;;;;;;;;;;5115972;28;20269;-79
2021/06/03 11:38:32;;;;;;;1304.25;999.90;;;;;;;;;;5117142;27;20181;-78
2021/06/03 11:40:58;;;;;;;1314.80;999.90;;;;;;;;;;5117134;27;20197;-77
2021/06/03 11:43:24;;;;;;;1308.22;999.90;;;;;;;;;;5115725;28;20174;-73
2021/06/03 11:45:50;;;;;;;1313.18;999.90;;;;;;;;;;5116736;28;20221;-76
2021/06/03 11:48:21;;;;;;;1312.50;999.90;;;;;;;;;;5115746;28;20254;-75
2021/06/03 11:50:48;;;;;;;1308.28;999.90;;;;;;;;;;5117038;28;20173;-75
2021/06/03 11:53:17;;;;;;;1300.63;999.90;;;;;;;;;;5115759;28;20166;-89
2021/06/03 11:55:43;;;;;;;1310.95;999.90;;;;;;;;;;5118917;28;20175;-90
2021/06/03 11:58:23;;;;;;;1307.40;999.90;;;;;;;;;;5116935;28;20245;-76
2021/06/03 12:00:49;;;;;;;1309.05;999.90;;;;;;;;;;5116668;28;20174;-81
2021/06/03 12:03:21;;;;;;;1320.90;999.90;;;;;;;;;;5116621;28;20591;-76
2021/06/03 12:05:47;;;;;;;1314.93;999.90;;;;;;;;;;5116572;27;20205;-79
2021/06/03 12:08:34;;;;;;;1321.80;999.90;;;;;;;;;;5116563;28;20173;-77
2021/06/03 12:11:00;;;;;;;1323.32;999.90;;;;;;;;;;5116508;28;20162;-79
2021/06/03 12:13:26;;;;;;;1344.38;999.90;;;;;;;;;;5116479;28;20249;-81
2021/06/03 12:15:52;;;;;;;1369.43;999.90;;;;;;;;;;5116402;28;20167;-77
2021/06/03 12:18:19;;;;;;;1415.22;999.90;;;;;;;;;;5115098;28;20174;-79
2021/06/03 12:20:46;;;;;;;1455.65;999.90;;;;;;;;;;5116302;28;20162;-77
2021/06/03 12:23:12;;;;;;;1474.03;999.90;;;;;;;;;;5116231;28;20205;-77
2021/06/03 12:25:40;;;;;;;1475.53;999.90;;;;;;;;;;5116215;28;20170;-77
2021/06/03 12:28:06;;;;;;;1473.50;999.90;;;;;;;;;;5115003;28;20170;-69
2021/06/03 12:30:34;;;;;;;1458.43;999.90;;;;;;;;;;5114866;28;20272;-77
2021/06/03 12:33:00;;;;;;;1442.13;999.90;;;;;;;;;;5116122;28;20163;-77
2021/06/03 12:35:32;;;;;;;1430.28;999.90;;;;;;;;;;5115852;28;20595;-76
2021/06/03 12:37:58;;;;;;;1433.75;999.90;;;;;;;;;;5116021;28;20208;-76
2021/06/03 12:40:25;;;;;;;1440.95;999.90;;;;;;;;;;5115842;28;20159;-75
2021/06/03 12:42:59;;;;;;;1436.25;999.90;;;;;;;;;;5115752;28;20167;-75
2021/06/03 12:45:28;;;;;;;1430.97;999.90;;;;;;;;;;5115639;28;20218;-76
2021/06/03 12:47:54;;;;;;;1431.95;999.90;;;;;;;;;;5114451;28;20272;-75
2021/06/03 12:50:20;;;;;;;1449.95;999.90;;;;;;;;;;5115858;28;20166;-66
2021/06/03 12:52:48;;;;;;;1455.40;999.90;;;;;;;;;;5115790;28;20617;-66
2021/06/03 12:55:15;;;;;;;1475.07;999.90;;;;;;;;;;5115595;28;20172;-75
2021/06/03 12:57:41;;;;;;;1488.78;999.90;;;;;;;;;;5115586;28;20223;-75
2021/06/03 13:00:10;;;;;;;1528.03;999.90;;;;;;;;;;5114354;28;20271;-75
2021/06/03 13:02:37;;;;;;;1502.40;999.90;;;;;;;;;;5115480;28;20537;-77
2021/06/03 13:05:04;;;;;;;1507.82;999.90;;;;;;;;;;5115515;28;20489;-75
2021/06/03 13:07:31;;;;;;;1547.57;999.90;;;;;;;;;;5115449;28;20162;-75
2021/06/03 13:09:58;;;;;;;1509.18;999.90;;;;;;;;;;5115454;28;20163;-77
2021/06/03 13:12:24;;;;;;;1542.85;999.90;;;;;;;;;;5115418;28;20158;-76
2021/06/03 13:14:52;;;;;;;1525.03;999.90;;;;;;;;;;5115236;28;20567;-75
2021/06/03 13:17:23;;;;;;;1555.45;999.90;;;;;;;;;;5115274;28;20210;-75
2021/06/03 13:19:50;;;;;;;1527.53;999.90;;;;;;;;;;5115295;28;20698;-76
2021/06/03 13:22:17;;;;;;;1624.78;999.90;;;;;;;;;;5113898;28;20511;-78
2021/06/03 13:24:43;;;;;;;1638.43;999.90;;;;;;;;;;5115158;28;20167;-76
2021/06/03 13:27:09;;;;;;;1597.38;999.90;;;;;;;;;;5115060;28;20733;-75
2021/06/03 13:29:58;;;;;;;1646.13;999.90;;;;;;;;;;5115055;28;20620;-74
2021/06/03 13:32:32;;;;;;;1605.28;999.90;;;;;;;;;;5104316;28;20643;-74
2021/06/03 13:35:04;;;;;;;1604.88;999.90;;;;;;;;;;5114905;27;20175;-75
2021/06/03 13:37:31;;;;;;;1557.80;999.90;;;;;;;;;;5114934;28;20502;-74
2021/06/03 13:39:59;;;;;;;1567.88;999.90;;;;;;;;;;5114732;28;20615;-74
2021/06/03 13:42:24;;;;;;;1601.47;999.90;;;;;;;;;;5114790;28;20232;-73
2021/06/03 13:44:56;;;;;;;1616.63;999.90;;;;;;;;;;5114765;28;20166;-73
2021/06/03 13:47:42;;;;;;;1570.07;999.90;;;;;;;;;;5114754;28;20177;-73
2021/06/03 13:50:27;;;;;;;1515.47;999.90;;;;;;;;;;5114527;28;20170;-71
2021/06/03 13:52:53;;;;;;;1517.57;999.90;;;;;;;;;;5114549;28;20536;-72
2021/06/03 13:55:23;;;;;;;1516.88;999.90;;;;;;;;;;5113985;28;20166;-73
2021/06/03 13:57:49;;;;;;;1526.75;999.90;;;;;;;;;;5114455;28;20167;-74
2021/06/03 14:00:32;;;;;;;1489.28;999.90;;;;;;;;;;5114445;28;20194;-74
2021/06/03 14:03:00;;;;;;;1451.53;999.90;;;;;;;;;;5114299;28;20551;-75
2021/06/03 14:05:26;;;;;;;1441.30;999.90;;;;;;;;;;5114360;28;20275;-75
2021/06/03 14:08:11;;;;;;;1422.75;999.90;;;;;;;;;;5113281;28;20557;-74
2021/06/03 14:10:56;;;;;;;1372.82;999.90;;;;;;;;;;5114202;28;20167;-72
2021/06/03 14:13:22;;;;;;;1402.75;999.90;;;;;;;;;;5114229;28;20619;-72
2021/06/03 14:15:48;;;;;;;1391.35;999.90;;;;;;;;;;5114157;28;20197;-71
2021/06/03 14:18:14;;;;;;;1347.88;999.90;;;;;;;;;;5112897;28;20158;-71
2021/06/03 14:20:40;;;;;;;1357.40;999.90;;;;;;;;;;5112799;28;20178;-71
2021/06/03 14:23:07;;;;;;;1349.20;999.90;;;;;;;;;;5112813;28;20166;-71
2021/06/03 14:25:38;;;;;;;1349.20;999.90;;;;;;;;;;5114026;28;20257;-72
2021/06/03 14:28:11;;;;;;;1367.90;999.90;;;;;;;;;;5114003;28;20624;-71
2021/06/03 14:30:37;;;;;;;1327.82;999.90;;;;;;;;;;5113930;28;20170;-71
2021/06/03 14:33:06;;;;;;;1363.65;999.90;;;;;;;;;;5113865;28;20163;-75
2021/06/03 14:35:36;;;;;;;1352.82;999.90;;;;;;;;;;5113811;28;20703;-73
2021/06/03 14:38:07;;;;;;;1335.22;999.90;;;;;;;;;;5113883;28;20162;-73
2021/06/03 14:40:35;;;;;;;1337.75;999.90;;;;;;;;;;5113754;28;20162;-74
2021/06/03 14:43:05;;;;;;;1357.68;999.90;;;;;;;;;;5112507;28;20178;-75
2021/06/03 14:45:32;;;;;;;1336.78;999.90;;;;;;;;;;5112354;28;20214;-74
2021/06/03 14:47:58;;;;;;;1329.35;999.90;;;;;;;;;;5112421;28;20174;-74
2021/06/03 14:50:25;;;;;;;1330.45;999.90;;;;;;;;;;5113682;28;20525;-73
2021/06/03 14:52:53;;;;;;;1340.22;999.90;;;;;;;;;;5112338;28;20178;-72
2021/06/03 14:55:20;;;;;;;1328.57;999.90;;;;;;;;;;5113637;28;20166;-73
2021/06/03 14:57:47;;;;;;;1332.63;999.90;;;;;;;;;;5112327;28;20243;-75
2021/06/03 15:00:15;;;;;;;1336.68;999.90;;;;;;;;;;5112381;28;20162;-73
2021/06/03 15:02:41;;;;;;;1335.55;999.90;;;;;;;;;;5113533;28;20242;-72
2021/06/03 15:05:11;;;;;;;1333.38;999.90;;;;;;;;;;5113564;28;20166;-73
2021/06/03 15:07:37;;;;;;;1355.22;999.90;;;;;;;;;;5115049;28;20162;-73
2021/06/03 15:10:04;;;;;;;1358.07;999.90;;;;;;;;;;5117700;28;20223;-72
2021/06/03 15:12:30;;;;;;;1388.85;999.90;;;;;;;;;;5116414;28;20162;-73
2021/06/03 15:14:56;;;;;;;1390.72;999.90;;;;;;;;;;5116435;28;20262;-73
2021/06/03 15:17:22;;;;;;;1375.68;999.90;;;;;;;;;;5117544;27;20647;-73
2021/06/03 15:19:51;;;;;;;1397.40;999.90;;;;;;;;;;5117541;28;20167;-72
2021/06/03 15:22:17;;;;;;;1423.50;999.90;;;;;;;;;;5117512;28;20155;-73
2021/06/03 15:24:43;;;;;;;1433.28;999.90;;;;;;;;;;5117448;28;20215;-73
2021/06/03 15:27:10;;;;;;;1454.63;999.90;;;;;;;;;;5117465;28;20249;-75
2021/06/03 15:29:37;;;;;;;1481.97;999.90;;;;;;;;;;5116064;28;20223;-74
2021/06/03 15:32:04;;;;;;;1499.88;999.90;;;;;;;;;;5117299;28;20226;-75
2021/06/03 15:34:30;;;;;;;1530.88;999.90;;;;;;;;;;5115884;28;20558;-72
2021/06/03 15:36:56;;;;;;;1531.07;999.90;;;;;;;;;;5117133;28;20190;-74
2021/06/03 15:39:22;;;;;;;1545.30;999.90;;;;;;;;;;5117160;28;20270;-72
2021/06/03 15:41:48;;;;;;;1607.30;999.90;;;;;;;;;;5117164;28;20155;-73
2021/06/03 15:44:14;;;;;;;1647.30;999.90;;;;;;;;;;5117088;28;20539;-73
2021/06/03 15:46:40;;;;;;;1698.97;999.90;;;;;;;;;;5116866;28;20218;-72
2021/06/03 15:49:07;;;;;;;1705.75;999.90;;;;;;;;;;5116906;28;20156;-72
2021/06/03 15:51:34;;;;;;;1714.38;999.90;;;;;;;;;;5116882;28;20163;-73
2021/06/03 15:54:01;;;;;;;1715.70;999.90;;;;;;;;;;5116846;28;20166;-74
2021/06/03 15:56:27;;;;;;;1748.25;999.90;;;;;;;;;;5116747;28;20186;-72
2021/06/03 15:58:54;;;;;;;1776.97;999.90;;;;;;;;;;5116720;28;20159;-72
2021/06/03 16:01:20;;;;;;;1757.22;999.90;;;;;;;;;;5115277;28;20619;-72
2021/06/03 16:03:46;;;;;;;1761.43;999.90;;;;;;;;;;5116525;28;20162;-71
2021/06/03 16:06:12;;;;;;;1776.15;999.90;;;;;;;;;;5116581;28;20177;-68
2021/06/03 16:08:38;;;;;;;1736.78;999.90;;;;;;;;;;5116512;28;20535;-67
2021/06/03 16:11:04;;;;;;;1752.35;999.90;;;;;;;;;;5116478;28;20166;-69
2021/06/03 16:13:29;;;;;;;1761.25;999.90;;;24.40;99.90;;;;;;5116469;28;20174;-70
2021/06/03 16:15:56;;;;;;;1771.95;999.90;;;24.50;99.90;;;;;;5116293;28;20239;-66
2021/06/03 16:18:22;;;;;;;1805.50;999.90;;;24.60;99.90;;;;;;5114570;28;20541;-66
2021/06/03 16:20:51;;;;;;;1815.75;999.90;;;24.90;99.90;;;;;;5116355;28;20171;-66
2021/06/03 16:23:17;;;;;;;1820.53;999.90;;;25.20;99.90;;;;;;5116261;28;20158;-66
2021/06/03 16:25:43;;;;;;;1875.40;999.90;;;25.60;99.90;;;;;;5116335;28;20239;-66
2021/06/03 16:28:09;;;;;;;1883.78;999.90;;;25.80;99.90;;;;;;5116191;28;20193;-67
2021/06/03 16:30:37;;;;;;;1918.72;999.90;;;25.90;99.90;;;;;;5116102;28;20162;-66
2021/06/03 16:33:09;;;;;;;1992.75;999.90;;;25.70;99.90;;;;;;5115972;28;20616;-66
2021/06/03 16:35:36;;;;;;;1997.13;999.90;;;25.70;99.90;;;;;;5115941;28;20202;-67
2021/06/03 16:38:04;;;;;;;1999.90;999.90;;;25.70;99.90;;;;;;5115940;28;20258;-67
2021/06/03 16:40:32;;;;;;;1999.90;999.90;;;26.00;99.90;;;;;;5115972;28;20163;-67
2021/06/03 16:42:59;;;;;;;1999.90;999.90;;;26.40;99.90;;;;;;5115878;28;20162;-67
2021/06/03 16:45:24;;;;;;;1999.90;999.90;;;26.50;99.90;;;;;;5115682;28;20221;-65
2021/06/03 16:47:50;;;;;;;1999.90;999.90;;;26.50;99.90;;;;;;5114531;28;20174;-65
2021/06/03 16:50:18;;;;;;;1999.90;999.90;;;26.40;99.90;;;;;;5115759;28;20632;-65
2021/06/03 16:52:45;;;;;;;1999.90;999.90;;;26.10;99.90;;;;;;5115788;28;20642;-64
2021/06/03 16:55:11;;;;;;;1999.90;999.90;;;25.90;99.90;;;;;;5115703;28;20659;-64
2021/06/03 16:57:37;;;;;;;1948.82;999.90;;;25.90;99.90;;;;;;5115590;28;20174;-64
2021/06/03 17:00:10;;;;;;;1792.93;999.90;;;25.80;99.90;;;;;;5115495;28;20167;-66
2021/06/03 17:02:36;;;;;;;1759.90;999.90;;;25.60;99.90;;;;;;5115306;28;20194;-67
2021/06/03 17:05:01;;;;;;;1658.93;999.90;;;25.40;99.90;;;;;;5115537;28;20244;-64
2021/06/03 17:07:27;;;;;;;1596.78;999.90;;;25.40;99.90;;;;;;5115497;28;20615;-64
2021/06/03 17:09:53;;;;;;;1537.85;999.90;;;25.20;99.90;;;;;;5115309;28;20158;-64
2021/06/03 17:12:18;;;;;;;1515.22;999.90;;;25.00;99.90;;;;;;5115261;28;20517;-64
2021/06/03 17:14:44;;;;;;;1524.70;999.90;;;24.80;99.90;;;;;;5115248;28;20172;-64
2021/06/03 17:17:09;;;;;;;1557.90;999.90;;;24.60;99.90;;;;;;5115225;28;20568;-65
2021/06/03 17:19:35;;;;;;;1524.60;999.90;;;24.80;99.90;;;;;;5115201;28;20171;-64
2021/06/03 17:22:01;;;;;;;1548.60;999.90;;;25.30;99.90;;;;;;5114944;28;20174;-65
2021/06/03 17:24:26;;;;;;;1585.78;999.90;;;25.80;99.90;;;;;;5115132;28;20163;-64
2021/06/03 17:26:52;;;;;;;1634.28;999.90;;;26.40;99.90;;;;;;5114710;28;20518;-65
2021/06/03 17:29:19;;;;;;;1595.00;999.90;;;26.80;99.90;;;;;;5114453;28;20170;-65
2021/06/03 17:31:45;;;;;;;1684.65;999.90;;;27.10;99.90;;;;;;5114267;28;20497;-65
2021/06/03 17:34:13;;;;;;;1684.43;999.90;;;27.20;99.90;;;;;;5114946;28;20539;-64
2021/06/03 17:36:39;;;;;;;1694.65;999.90;;;27.00;99.90;;;;;;5114777;28;20186;-65
2021/06/03 17:39:05;;;;;;;1788.43;999.90;;;26.80;99.90;;;;;;5114704;28;20177;-66
2021/06/03 17:41:34;;;;;;;1858.47;999.90;;;26.80;99.90;;;;;;5114701;28;20262;-65
2021/06/03 17:44:01;;;;;;;1734.60;999.90;;;26.80;99.90;;;;;;5114713;28;20154;-65
2021/06/03 17:46:26;;;;;;;1747.78;999.90;;;26.80;99.90;;;;;;5114553;28;20221;-65
2021/06/03 17:48:52;;;;;;;1737.38;999.90;;;26.60;99.90;;;;;;5114581;28;20162;-66
2021/06/03 17:51:18;;;;;;;1700.90;999.90;;;26.40;99.90;;;;;;5114615;28;20215;-66
2021/06/03 17:53:44;;;;;;;1688.25;999.90;;;26.20;99.90;;;;;;5113295;28;20268;-65
2021/06/03 17:56:10;;;;;;;1676.22;999.90;;;26.00;99.90;;;;;;5114429;28;20210;-65
2021/06/03 17:58:36;;;;;;;1670.22;999.90;;;25.80;99.90;;;;;;5114436;28;20219;-65
2021/06/03 18:01:01;;;;;;;1587.85;999.90;;;25.60;99.90;;;;;;5114374;28;20532;-67
2021/06/03 18:03:27;;;;;;;1562.15;999.90;;;25.40;99.90;;;;;;5114294;28;20181;-67
2021/06/03 18:05:54;;;;;;;1629.35;999.90;;;25.40;99.90;;;;;;5114329;28;20231;-67
2021/06/03 18:08:20;;;;;;;1568.30;999.90;;;25.50;99.90;;;;;;5114361;28;20219;-66
2021/06/03 18:10:48;;;;;;;1560.28;999.90;;;25.50;99.90;;;;;;5114148;28;20171;-65
2021/06/03 18:13:15;;;;;;;1544.80;999.90;;;25.50;99.90;;;;;;5114193;28;20799;-65
2021/06/03 18:15:40;;;;;;;1581.60;999.90;;;25.40;99.90;;;;;;5114070;28;20360;-65
2021/06/03 18:18:08;;;;;;;1613.35;999.90;;;25.30;99.90;;;;;;5114166;28;20169;-65
2021/06/03 18:20:35;;;;;;;1664.95;999.90;;;25.30;99.90;;;;;;5114193;28;20158;-65
2021/06/03 18:23:01;;;;;;;1633.97;999.90;;;25.30;99.90;;;;;;5114092;28;20159;-65
2021/06/03 18:25:27;;;;;;;1662.78;999.90;;;25.30;99.90;;;;;;5112775;28;20166;-65
2021/06/03 18:27:54;;;;;;;1636.03;999.90;;;25.10;99.90;;;;;;5114050;28;20548;-65
2021/06/03 18:30:23;;;;;;;1611.50;999.90;;;24.80;99.90;;;;;;5113931;28;20199;-65
2021/06/03 18:32:50;;;;;;;1619.78;999.90;;;24.60;99.90;;;;;;5113864;28;20194;-65
2021/06/03 18:35:17;;;;;;;1582.45;999.90;;;24.40;99.90;;;;;;5113837;28;20337;-65
2021/06/03 18:37:43;;;;;;;1564.43;999.90;;;24.20;99.90;;;;;;5113816;28;20231;-65
2021/06/03 18:40:12;;;;;;;1562.30;999.90;;;24.10;99.90;;;;;;5113688;28;20627;-65
2021/06/03 18:42:38;;;;;;;1512.47;999.90;;;23.90;99.90;;;;;;5113448;28;20174;-65
2021/06/03 18:45:07;;;;;;;1452.63;999.90;;;23.80;99.90;;;;;;5112237;28;20261;-65
2021/06/03 18:47:33;;;;;;;1459.53;999.90;;;23.60;99.90;;;;;;5112486;28;20170;-65
2021/06/03 18:49:59;;;;;;;1466.93;999.90;;;23.50;99.90;;;;;;5113734;28;20171;-65
2021/06/03 18:52:24;;;;;;;1425.30;999.90;;;23.40;99.90;;;;;;5113513;28;20174;-68
2021/06/03 18:58:12;;;;;;;1362.47;999.90;;;23.20;99.90;;;;;;5113645;28;20279;-65
2021/06/03 19:00:38;;;;;;;1356.60;999.90;;;23.10;99.90;;;;;;5113388;28;20278;-65
2021/06/03 19:03:07;;;;;;;1362.68;999.90;;;23.00;99.90;;;;;;5113594;28;20500;-65
2021/06/03 19:05:34;;;;;;;1335.80;999.90;;;22.90;99.90;;;;;;5113614;28;20350;-65
2021/06/03 19:08:00;;;;;;;1357.88;999.90;;;22.80;99.90;;;;;;5113681;28;20201;-65
